sensor_id;sensor_type;location;lat;lon;timestamp;temperature;humidity
480;DHT22;226;48.606;9.096;2024-02-26T00:01:54;4.90;43.80
480;DHT22;226;48.606;9.096;2024-02-26T00:04:22;4.90;44.70
480;DHT22;226;48.606;9.096;2024-02-26T00:06:50;5.60;45.60
480;DHT22;226;48.606;9.096;2024-02-26T00:09:21;5.30;44.70
480;DHT22;226;48.606;9.096;2024-02-26T00:11:49;4.80;44.30
480;DHT22;226;48.606;9.096;2024-02-26T00:14:19;5.10;44.40
480;DHT22;226;48.606;9.096;2024-02-26T00:16:47;4.70;43.70
480;DHT22;226;48.606;9.096;2024-02-26T00:19:15;4.90;43.90
480;DHT22;226;48.606;9.096;2024-02-26T00:21:43;4.90;43.50
480;DHT22;226;48.606;9.096;2024-02-26T00:24:11;4.80;43.70
480;DHT22;226;48.606;9.096;2024-02-26T00:26:40;4.90;44.30
480;DHT22;226;48.606;9.096;2024-02-26T00:29:08;4.90;45.20
480;DHT22;226;48.606;9.096;2024-02-26T00:31:38;4.90;45.20
480;DHT22;226;48.606;9.096;2024-02-26T00:34:06;5.00;45.40
480;DHT22;226;48.606;9.096;2024-02-26T00:36:34;5.10;44.30
480;DHT22;226;48.606;9.096;2024-02-26T00:39:02;5.10;44.20
480;DHT22;226;48.606;9.096;2024-02-26T00:41:31;5.10;43.60
480;DHT22;226;48.606;9.096;2024-02-26T00:43:59;5.10;43.60
480;DHT22;226;48.606;9.096;2024-02-26T00:46:27;5.20;43.40
480;DHT22;226;48.606;9.096;2024-02-26T00:48:57;5.40;43.00
480;DHT22;226;48.606;9.096;2024-02-26T00:51:25;5.30;41.80
480;DHT22;226;48.606;9.096;2024-02-26T00:53:54;5.60;43.30
480;DHT22;226;48.606;9.096;2024-02-26T00:56:22;5.30;43.40
480;DHT22;226;48.606;9.096;2024-02-26T00:58:50;5.40;42.70
480;DHT22;226;48.606;9.096;2024-02-26T01:01:19;5.40;42.30
480;DHT22;226;48.606;9.096;2024-02-26T01:03:47;5.30;42.10
480;DHT22;226;48.606;9.096;2024-02-26T01:06:17;5.50;43.40
480;DHT22;226;48.606;9.096;2024-02-26T01:08:45;5.20;44.10
480;DHT22;226;48.606;9.096;2024-02-26T01:11:13;4.90;44.10
480;DHT22;226;48.606;9.096;2024-02-26T01:13:42;5.10;45.20
480;DHT22;226;48.606;9.096;2024-02-26T01:16:10;5.00;44.10
480;DHT22;226;48.606;9.096;2024-02-26T01:18:38;5.50;45.00
480;DHT22;226;48.606;9.096;2024-02-26T01:21:06;5.20;34.20
480;DHT22;226;48.606;9.096;2024-02-26T01:23:37;5.30;31.50
480;DHT22;226;48.606;9.096;2024-02-26T01:26:05;5.20;31.00
480;DHT22;226;48.606;9.096;2024-02-26T01:28:33;5.40;30.80
480;DHT22;226;48.606;9.096;2024-02-26T01:31:02;5.20;30.90
480;DHT22;226;48.606;9.096;2024-02-26T01:33:32;5.30;30.60
480;DHT22;226;48.606;9.096;2024-02-26T01:36:01;5.50;30.30
480;DHT22;226;48.606;9.096;2024-02-26T01:38:29;5.40;29.40
480;DHT22;226;48.606;9.096;2024-02-26T01:40:59;5.40;29.50
480;DHT22;226;48.606;9.096;2024-02-26T01:43:27;5.50;30.00
480;DHT22;226;48.606;9.096;2024-02-26T01:45:55;5.50;29.50
480;DHT22;226;48.606;9.096;2024-02-26T01:48:23;5.70;28.90
480;DHT22;226;48.606;9.096;2024-02-26T01:50:52;5.60;28.60
480;DHT22;226;48.606;9.096;2024-02-26T01:53:21;5.50;28.00
480;DHT22;226;48.606;9.096;2024-02-26T01:55:49;5.50;28.40
480;DHT22;226;48.606;9.096;2024-02-26T01:58:19;5.70;27.90
480;DHT22;226;48.606;9.096;2024-02-26T02:00:48;6.50;27.80
480;DHT22;226;48.606;9.096;2024-02-26T02:03:16;6.20;29.50
480;DHT22;226;48.606;9.096;2024-02-26T02:05:45;5.60;30.10
480;DHT22;226;48.606;9.096;2024-02-26T02:08:13;5.80;31.00
480;DHT22;226;48.606;9.096;2024-02-26T02:10:42;5.70;31.80
480;DHT22;226;48.606;9.096;2024-02-26T02:13:10;5.70;32.20
480;DHT22;226;48.606;9.096;2024-02-26T02:15:40;5.60;30.50
480;DHT22;226;48.606;9.096;2024-02-26T02:18:08;5.60;31.50
480;DHT22;226;48.606;9.096;2024-02-26T02:20:39;5.60;30.50
480;DHT22;226;48.606;9.096;2024-02-26T02:23:07;5.60;28.20
480;DHT22;226;48.606;9.096;2024-02-26T02:25:35;5.70;26.70
480;DHT22;226;48.606;9.096;2024-02-26T02:28:04;5.70;28.80
480;DHT22;226;48.606;9.096;2024-02-26T02:30:32;5.70;27.80
480;DHT22;226;48.606;9.096;2024-02-26T02:33:03;5.70;28.20
480;DHT22;226;48.606;9.096;2024-02-26T02:35:31;5.80;30.00
480;DHT22;226;48.606;9.096;2024-02-26T02:38:01;5.80;30.20
480;DHT22;226;48.606;9.096;2024-02-26T02:40:29;6.00;30.00
480;DHT22;226;48.606;9.096;2024-02-26T02:42:57;6.00;30.00
480;DHT22;226;48.606;9.096;2024-02-26T02:45:25;6.30;30.20
480;DHT22;226;48.606;9.096;2024-02-26T02:47:53;6.00;30.30
480;DHT22;226;48.606;9.096;2024-02-26T02:50:22;6.40;30.90
480;DHT22;226;48.606;9.096;2024-02-26T02:52:50;6.10;29.70
480;DHT22;226;48.606;9.096;2024-02-26T02:55:19;6.10;29.60
480;DHT22;226;48.606;9.096;2024-02-26T02:57:48;6.00;30.50
480;DHT22;226;48.606;9.096;2024-02-26T03:00:16;5.90;28.60
480;DHT22;226;48.606;9.096;2024-02-26T03:02:45;5.90;28.30
480;DHT22;226;48.606;9.096;2024-02-26T03:05:13;6.00;30.00
480;DHT22;226;48.606;9.096;2024-02-26T03:07:41;6.00;31.20
480;DHT22;226;48.606;9.096;2024-02-26T03:10:09;6.10;30.60
480;DHT22;226;48.606;9.096;2024-02-26T03:12:39;6.00;30.90
480;DHT22;226;48.606;9.096;2024-02-26T03:15:08;6.00;30.40
480;DHT22;226;48.606;9.096;2024-02-26T03:17:38;6.00;31.60
480;DHT22;226;48.606;9.096;2024-02-26T03:20:08;6.10;31.50
480;DHT22;226;48.606;9.096;2024-02-26T03:22:38;6.10;31.70
480;DHT22;226;48.606;9.096;2024-02-26T03:25:07;6.40;31.80
480;DHT22;226;48.606;9.096;2024-02-26T03:27:36;6.10;33.90
480;DHT22;226;48.606;9.096;2024-02-26T03:30:06;6.30;33.40
480;DHT22;226;48.606;9.096;2024-02-26T03:32:35;6.20;34.10
480;DHT22;226;48.606;9.096;2024-02-26T03:35:03;6.40;34.90
480;DHT22;226;48.606;9.096;2024-02-26T03:37:31;6.30;35.40
480;DHT22;226;48.606;9.096;2024-02-26T03:40:00;6.90;45.20
480;DHT22;226;48.606;9.096;2024-02-26T03:42:28;6.60;35.90
480;DHT22;226;48.606;9.096;2024-02-26T03:44:56;5.80;33.10
480;DHT22;226;48.606;9.096;2024-02-26T03:47:25;6.30;34.30
480;DHT22;226;48.606;9.096;2024-02-26T03:49:54;6.20;33.30
480;DHT22;226;48.606;9.096;2024-02-26T03:52:22;6.10;34.40
480;DHT22;226;48.606;9.096;2024-02-26T03:54:50;6.20;35.00
480;DHT22;226;48.606;9.096;2024-02-26T03:57:18;6.30;35.30
480;DHT22;226;48.606;9.096;2024-02-26T03:59:46;6.30;35.00
480;DHT22;226;48.606;9.096;2024-02-26T04:02:14;6.20;36.10
480;DHT22;226;48.606;9.096;2024-02-26T04:04:45;6.30;37.10
480;DHT22;226;48.606;9.096;2024-02-26T04:07:13;6.50;36.70
480;DHT22;226;48.606;9.096;2024-02-26T04:09:42;6.20;36.70
480;DHT22;226;48.606;9.096;2024-02-26T04:12:10;6.30;34.10
480;DHT22;226;48.606;9.096;2024-02-26T04:14:38;6.20;35.30
480;DHT22;226;48.606;9.096;2024-02-26T04:17:06;6.30;36.30
480;DHT22;226;48.606;9.096;2024-02-26T04:19:39;6.10;36.50
480;DHT22;226;48.606;9.096;2024-02-26T04:22:10;6.00;36.70
480;DHT22;226;48.606;9.096;2024-02-26T04:24:38;6.00;38.60
480;DHT22;226;48.606;9.096;2024-02-26T04:27:06;6.50;40.70
480;DHT22;226;48.606;9.096;2024-02-26T04:29:35;6.00;39.50
480;DHT22;226;48.606;9.096;2024-02-26T04:32:03;6.20;39.60
480;DHT22;226;48.606;9.096;2024-02-26T04:34:32;6.10;38.80
480;DHT22;226;48.606;9.096;2024-02-26T04:37:00;6.20;39.60
480;DHT22;226;48.606;9.096;2024-02-26T04:39:30;6.10;38.80
480;DHT22;226;48.606;9.096;2024-02-26T04:41:58;6.20;38.30
480;DHT22;226;48.606;9.096;2024-02-26T04:44:26;6.50;36.60
480;DHT22;226;48.606;9.096;2024-02-26T04:46:54;6.50;34.80
480;DHT22;226;48.606;9.096;2024-02-26T04:49:22;6.00;32.90
480;DHT22;226;48.606;9.096;2024-02-26T04:51:50;6.40;31.90
480;DHT22;226;48.606;9.096;2024-02-26T04:54:18;6.20;32.30
480;DHT22;226;48.606;9.096;2024-02-26T04:56:48;6.50;31.90
480;DHT22;226;48.606;9.096;2024-02-26T04:59:17;6.10;31.30
480;DHT22;226;48.606;9.096;2024-02-26T05:01:45;6.70;31.80
480;DHT22;226;48.606;9.096;2024-02-26T05:04:13;6.30;27.60
480;DHT22;226;48.606;9.096;2024-02-26T05:06:42;7.70;26.70
480;DHT22;226;48.606;9.096;2024-02-26T05:09:10;6.40;26.10
480;DHT22;226;48.606;9.096;2024-02-26T05:11:39;6.40;28.70
480;DHT22;226;48.606;9.096;2024-02-26T05:14:10;6.50;29.80
480;DHT22;226;48.606;9.096;2024-02-26T05:16:38;6.40;31.70
480;DHT22;226;48.606;9.096;2024-02-26T05:19:06;6.30;32.00
480;DHT22;226;48.606;9.096;2024-02-26T05:21:35;6.20;32.30
480;DHT22;226;48.606;9.096;2024-02-26T05:24:03;6.30;33.10
480;DHT22;226;48.606;9.096;2024-02-26T05:26:31;6.40;30.80
480;DHT22;226;48.606;9.096;2024-02-26T05:29:00;6.40;34.60
480;DHT22;226;48.606;9.096;2024-02-26T05:31:29;6.10;38.20
480;DHT22;226;48.606;9.096;2024-02-26T05:33:57;6.00;38.50
480;DHT22;226;48.606;9.096;2024-02-26T05:36:25;5.90;39.30
480;DHT22;226;48.606;9.096;2024-02-26T05:38:55;5.90;38.10
480;DHT22;226;48.606;9.096;2024-02-26T05:41:24;6.20;39.80
480;DHT22;226;48.606;9.096;2024-02-26T05:43:53;6.10;40.30
480;DHT22;226;48.606;9.096;2024-02-26T05:46:22;6.10;41.50
480;DHT22;226;48.606;9.096;2024-02-26T05:48:52;6.00;42.70
480;DHT22;226;48.606;9.096;2024-02-26T05:51:21;6.00;41.10
480;DHT22;226;48.606;9.096;2024-02-26T05:53:49;6.50;40.90
480;DHT22;226;48.606;9.096;2024-02-26T05:56:22;6.10;41.50
480;DHT22;226;48.606;9.096;2024-02-26T05:58:51;6.00;42.70
480;DHT22;226;48.606;9.096;2024-02-26T06:01:21;5.90;42.50
480;DHT22;226;48.606;9.096;2024-02-26T06:03:50;5.80;42.80
480;DHT22;226;48.606;9.096;2024-02-26T06:06:18;6.00;43.60
480;DHT22;226;48.606;9.096;2024-02-26T06:08:48;5.80;45.00
480;DHT22;226;48.606;9.096;2024-02-26T06:11:17;5.70;46.70
480;DHT22;226;48.606;9.096;2024-02-26T06:13:46;5.70;47.30
480;DHT22;226;48.606;9.096;2024-02-26T06:16:14;5.60;48.10
480;DHT22;226;48.606;9.096;2024-02-26T06:18:42;5.70;50.00
480;DHT22;226;48.606;9.096;2024-02-26T06:21:12;5.60;49.90
480;DHT22;226;48.606;9.096;2024-02-26T06:23:40;5.80;50.00
480;DHT22;226;48.606;9.096;2024-02-26T06:26:08;6.00;49.70
480;DHT22;226;48.606;9.096;2024-02-26T06:28:37;5.70;48.40
480;DHT22;226;48.606;9.096;2024-02-26T06:31:08;5.60;49.10
480;DHT22;226;48.606;9.096;2024-02-26T06:33:36;5.70;50.30
480;DHT22;226;48.606;9.096;2024-02-26T06:36:05;5.40;50.70
480;DHT22;226;48.606;9.096;2024-02-26T06:38:34;5.40;54.30
480;DHT22;226;48.606;9.096;2024-02-26T06:41:03;5.40;53.10
480;DHT22;226;48.606;9.096;2024-02-26T06:43:31;5.30;52.50
480;DHT22;226;48.606;9.096;2024-02-26T06:45:59;5.30;53.40
480;DHT22;226;48.606;9.096;2024-02-26T06:48:28;5.40;53.00
480;DHT22;226;48.606;9.096;2024-02-26T06:50:56;6.20;52.30
480;DHT22;226;48.606;9.096;2024-02-26T06:53:24;5.50;52.80
480;DHT22;226;48.606;9.096;2024-02-26T06:55:54;5.50;52.20
480;DHT22;226;48.606;9.096;2024-02-26T06:58:22;6.10;52.80
480;DHT22;226;48.606;9.096;2024-02-26T07:00:50;5.60;52.80
480;DHT22;226;48.606;9.096;2024-02-26T07:03:19;5.70;53.40
480;DHT22;226;48.606;9.096;2024-02-26T07:05:47;5.90;52.90
480;DHT22;226;48.606;9.096;2024-02-26T07:08:15;6.10;49.70
480;DHT22;226;48.606;9.096;2024-02-26T07:10:43;6.10;48.00
480;DHT22;226;48.606;9.096;2024-02-26T07:13:13;6.20;47.30
480;DHT22;226;48.606;9.096;2024-02-26T07:15:41;6.60;46.00
480;DHT22;226;48.606;9.096;2024-02-26T07:18:09;6.20;45.80
480;DHT22;226;48.606;9.096;2024-02-26T07:20:38;6.20;46.70
480;DHT22;226;48.606;9.096;2024-02-26T07:23:06;6.20;46.50
480;DHT22;226;48.606;9.096;2024-02-26T07:25:34;6.50;46.50
480;DHT22;226;48.606;9.096;2024-02-26T07:28:02;6.40;45.20
480;DHT22;226;48.606;9.096;2024-02-26T07:30:32;6.50;43.40
480;DHT22;226;48.606;9.096;2024-02-26T07:33:00;6.70;43.90
480;DHT22;226;48.606;9.096;2024-02-26T07:35:28;6.70;43.60
480;DHT22;226;48.606;9.096;2024-02-26T07:37:56;6.70;42.60
480;DHT22;226;48.606;9.096;2024-02-26T07:40:24;6.80;42.50
480;DHT22;226;48.606;9.096;2024-02-26T07:42:52;7.00;41.60
480;DHT22;226;48.606;9.096;2024-02-26T07:45:20;7.00;42.10
480;DHT22;226;48.606;9.096;2024-02-26T07:47:50;7.10;41.00
480;DHT22;226;48.606;9.096;2024-02-26T07:50:19;7.70;40.60
480;DHT22;226;48.606;9.096;2024-02-26T07:52:47;7.20;39.50
480;DHT22;226;48.606;9.096;2024-02-26T07:55:18;7.40;39.60
480;DHT22;226;48.606;9.096;2024-02-26T07:57:46;7.60;39.60
480;DHT22;226;48.606;9.096;2024-02-26T08:00:14;7.80;39.10
480;DHT22;226;48.606;9.096;2024-02-26T08:02:44;7.60;37.50
480;DHT22;226;48.606;9.096;2024-02-26T08:05:15;7.70;37.80
480;DHT22;226;48.606;9.096;2024-02-26T08:07:43;7.70;37.80
480;DHT22;226;48.606;9.096;2024-02-26T08:10:11;7.80;38.00
480;DHT22;226;48.606;9.096;2024-02-26T08:12:40;7.80;38.30
480;DHT22;226;48.606;9.096;2024-02-26T08:15:08;7.90;36.60
480;DHT22;226;48.606;9.096;2024-02-26T08:17:38;8.00;33.70
480;DHT22;226;48.606;9.096;2024-02-26T08:20:07;8.10;30.90
480;DHT22;226;48.606;9.096;2024-02-26T08:22:37;8.10;30.00
480;DHT22;226;48.606;9.096;2024-02-26T08:25:06;8.10;29.10
480;DHT22;226;48.606;9.096;2024-02-26T08:27:36;8.20;29.90
480;DHT22;226;48.606;9.096;2024-02-26T08:30:05;8.20;29.00
480;DHT22;226;48.606;9.096;2024-02-26T08:32:34;8.30;28.80
480;DHT22;226;48.606;9.096;2024-02-26T08:35:02;8.40;27.90
480;DHT22;226;48.606;9.096;2024-02-26T08:37:31;8.50;27.10
480;DHT22;226;48.606;9.096;2024-02-26T08:40:00;8.60;27.50
480;DHT22;226;48.606;9.096;2024-02-26T08:42:33;8.60;27.60
480;DHT22;226;48.606;9.096;2024-02-26T08:45:02;8.80;26.60
480;DHT22;226;48.606;9.096;2024-02-26T08:47:30;8.90;25.20
480;DHT22;226;48.606;9.096;2024-02-26T08:49:59;9.10;25.00
480;DHT22;226;48.606;9.096;2024-02-26T08:52:27;9.30;24.30
480;DHT22;226;48.606;9.096;2024-02-26T08:54:55;9.30;22.60
480;DHT22;226;48.606;9.096;2024-02-26T08:57:25;9.40;21.60
480;DHT22;226;48.606;9.096;2024-02-26T08:59:54;9.40;19.90
480;DHT22;226;48.606;9.096;2024-02-26T09:02:22;9.50;18.00
480;DHT22;226;48.606;9.096;2024-02-26T09:04:50;9.50;17.40
480;DHT22;226;48.606;9.096;2024-02-26T09:07:20;9.60;17.10
480;DHT22;226;48.606;9.096;2024-02-26T09:09:48;9.60;19.00
480;DHT22;226;48.606;9.096;2024-02-26T09:12:17;9.70;18.70
480;DHT22;226;48.606;9.096;2024-02-26T09:14:48;9.70;17.20
480;DHT22;226;48.606;9.096;2024-02-26T09:17:16;9.70;16.60
480;DHT22;226;48.606;9.096;2024-02-26T09:19:44;9.70;15.60
480;DHT22;226;48.606;9.096;2024-02-26T09:22:12;9.70;16.40
480;DHT22;226;48.606;9.096;2024-02-26T09:24:44;9.80;15.20
480;DHT22;226;48.606;9.096;2024-02-26T09:27:12;9.80;15.20
480;DHT22;226;48.606;9.096;2024-02-26T09:29:40;9.90;17.00
480;DHT22;226;48.606;9.096;2024-02-26T09:32:10;10.00;15.40
480;DHT22;226;48.606;9.096;2024-02-26T09:34:40;10.00;15.40
480;DHT22;226;48.606;9.096;2024-02-26T09:37:08;10.10;14.90
480;DHT22;226;48.606;9.096;2024-02-26T09:39:47;10.30;14.10
480;DHT22;226;48.606;9.096;2024-02-26T09:42:17;10.40;15.90
480;DHT22;226;48.606;9.096;2024-02-26T09:44:50;10.60;15.90
480;DHT22;226;48.606;9.096;2024-02-26T09:47:22;10.70;14.10
480;DHT22;226;48.606;9.096;2024-02-26T09:49:52;10.90;12.60
480;DHT22;226;48.606;9.096;2024-02-26T09:52:21;10.90;13.00
480;DHT22;226;48.606;9.096;2024-02-26T09:54:49;11.10;13.90
480;DHT22;226;48.606;9.096;2024-02-26T09:57:18;11.20;12.80
480;DHT22;226;48.606;9.096;2024-02-26T09:59:47;11.40;13.20
480;DHT22;226;48.606;9.096;2024-02-26T10:02:20;11.50;12.50
480;DHT22;226;48.606;9.096;2024-02-26T10:04:49;11.60;12.60
480;DHT22;226;48.606;9.096;2024-02-26T10:07:20;11.70;13.30
480;DHT22;226;48.606;9.096;2024-02-26T10:09:48;11.80;10.40
480;DHT22;226;48.606;9.096;2024-02-26T10:12:18;11.70;11.30
480;DHT22;226;48.606;9.096;2024-02-26T10:14:46;11.80;10.60
480;DHT22;226;48.606;9.096;2024-02-26T10:17:15;11.90;9.90
480;DHT22;226;48.606;9.096;2024-02-26T10:19:44;12.00;11.60
480;DHT22;226;48.606;9.096;2024-02-26T10:22:13;12.10;9.00
480;DHT22;226;48.606;9.096;2024-02-26T10:24:41;12.20;9.90
480;DHT22;226;48.606;9.096;2024-02-26T10:27:09;12.30;9.60
480;DHT22;226;48.606;9.096;2024-02-26T10:29:37;12.30;8.30
480;DHT22;226;48.606;9.096;2024-02-26T10:32:06;12.20;7.60
480;DHT22;226;48.606;9.096;2024-02-26T10:34:35;12.10;7.00
480;DHT22;226;48.606;9.096;2024-02-26T10:37:06;12.00;8.10
480;DHT22;226;48.606;9.096;2024-02-26T10:39:36;12.00;7.30
480;DHT22;226;48.606;9.096;2024-02-26T10:42:05;12.10;9.30
480;DHT22;226;48.606;9.096;2024-02-26T10:44:40;12.30;8.10
480;DHT22;226;48.606;9.096;2024-02-26T10:47:09;12.40;8.70
480;DHT22;226;48.606;9.096;2024-02-26T10:49:38;12.40;8.10
480;DHT22;226;48.606;9.096;2024-02-26T10:52:08;12.30;8.70
480;DHT22;226;48.606;9.096;2024-02-26T10:54:38;12.10;6.40
480;DHT22;226;48.606;9.096;2024-02-26T10:57:11;11.90;5.00
480;DHT22;226;48.606;9.096;2024-02-26T10:59:42;11.90;4.70
480;DHT22;226;48.606;9.096;2024-02-26T11:02:13;11.90;5.30
480;DHT22;226;48.606;9.096;2024-02-26T11:04:41;11.90;3.80
480;DHT22;226;48.606;9.096;2024-02-26T11:07:12;11.90;4.90
480;DHT22;226;48.606;9.096;2024-02-26T11:09:41;11.90;4.30
480;DHT22;226;48.606;9.096;2024-02-26T11:12:12;11.90;3.80
480;DHT22;226;48.606;9.096;2024-02-26T11:14:43;11.90;4.30
480;DHT22;226;48.606;9.096;2024-02-26T11:17:13;11.90;3.70
480;DHT22;226;48.606;9.096;2024-02-26T11:19:44;12.00;4.10
480;DHT22;226;48.606;9.096;2024-02-26T11:22:14;12.10;3.20
480;DHT22;226;48.606;9.096;2024-02-26T11:24:50;12.30;2.60
480;DHT22;226;48.606;9.096;2024-02-26T11:27:21;12.40;3.40
480;DHT22;226;48.606;9.096;2024-02-26T11:29:52;12.60;3.40
480;DHT22;226;48.606;9.096;2024-02-26T11:32:22;12.80;2.40
480;DHT22;226;48.606;9.096;2024-02-26T11:34:51;13.10;1.50
480;DHT22;226;48.606;9.096;2024-02-26T11:37:22;13.20;1.00
480;DHT22;226;48.606;9.096;2024-02-26T11:39:52;13.40;1.60
480;DHT22;226;48.606;9.096;2024-02-26T11:42:23;13.40;1.00
480;DHT22;226;48.606;9.096;2024-02-26T11:44:52;13.40;1.00
480;DHT22;226;48.606;9.096;2024-02-26T11:47:21;13.40;1.00
480;DHT22;226;48.606;9.096;2024-02-26T11:49:50;13.40;1.00
480;DHT22;226;48.606;9.096;2024-02-26T11:52:18;13.40;1.00
480;DHT22;226;48.606;9.096;2024-02-26T11:54:49;13.40;1.00
480;DHT22;226;48.606;9.096;2024-02-26T11:57:25;13.40;1.00
480;DHT22;226;48.606;9.096;2024-02-26T11:59:55;13.40;1.00
480;DHT22;226;48.606;9.096;2024-02-26T12:02:41;13.30;1.00
480;DHT22;226;48.606;9.096;2024-02-26T12:05:12;13.30;1.00
480;DHT22;226;48.606;9.096;2024-02-26T12:07:47;13.30;1.50
480;DHT22;226;48.606;9.096;2024-02-26T12:10:26;13.40;1.00
480;DHT22;226;48.606;9.096;2024-02-26T12:12:59;13.50;1.00
480;DHT22;226;48.606;9.096;2024-02-26T12:15:32;13.50;1.00
480;DHT22;226;48.606;9.096;2024-02-26T12:18:05;13.50;1.00
480;DHT22;226;48.606;9.096;2024-02-26T12:20:34;13.60;1.00
480;DHT22;226;48.606;9.096;2024-02-26T12:23:03;13.70;1.00
480;DHT22;226;48.606;9.096;2024-02-26T12:25:33;13.80;1.00
480;DHT22;226;48.606;9.096;2024-02-26T12:28:01;13.80;1.00
480;DHT22;226;48.606;9.096;2024-02-26T12:30:31;13.80;1.00
480;DHT22;226;48.606;9.096;2024-02-26T12:32:59;13.90;1.00
480;DHT22;226;48.606;9.096;2024-02-26T12:35:28;13.90;1.00
480;DHT22;226;48.606;9.096;2024-02-26T12:37:58;14.10;1.00
480;DHT22;226;48.606;9.096;2024-02-26T12:40:27;14.10;1.00
480;DHT22;226;48.606;9.096;2024-02-26T12:42:58;14.10;1.00
480;DHT22;226;48.606;9.096;2024-02-26T12:45:26;14.10;1.00
480;DHT22;226;48.606;9.096;2024-02-26T12:47:55;14.10;1.00
480;DHT22;226;48.606;9.096;2024-02-26T12:50:24;13.90;1.00
480;DHT22;226;48.606;9.096;2024-02-26T12:52:53;13.70;1.00
480;DHT22;226;48.606;9.096;2024-02-26T12:55:21;13.80;1.00
480;DHT22;226;48.606;9.096;2024-02-26T12:57:50;13.80;1.00
480;DHT22;226;48.606;9.096;2024-02-26T13:00:22;13.80;1.00
480;DHT22;226;48.606;9.096;2024-02-26T13:02:51;13.80;1.00
480;DHT22;226;48.606;9.096;2024-02-26T13:05:22;13.80;1.40
480;DHT22;226;48.606;9.096;2024-02-26T13:07:51;13.90;1.00
480;DHT22;226;48.606;9.096;2024-02-26T13:10:20;14.00;1.00
480;DHT22;226;48.606;9.096;2024-02-26T13:12:49;14.00;1.00
480;DHT22;226;48.606;9.096;2024-02-26T13:15:21;14.10;1.00
480;DHT22;226;48.606;9.096;2024-02-26T13:17:49;14.10;1.00
480;DHT22;226;48.606;9.096;2024-02-26T13:20:27;14.00;1.00
480;DHT22;226;48.606;9.096;2024-02-26T13:23:07;14.00;1.00
480;DHT22;226;48.606;9.096;2024-02-26T13:25:35;14.00;1.00
480;DHT22;226;48.606;9.096;2024-02-26T13:28:14;14.10;1.00
480;DHT22;226;48.606;9.096;2024-02-26T13:30:51;14.30;1.00
480;DHT22;226;48.606;9.096;2024-02-26T13:33:21;14.30;1.00
480;DHT22;226;48.606;9.096;2024-02-26T13:35:50;14.20;1.00
480;DHT22;226;48.606;9.096;2024-02-26T13:38:18;14.10;1.00
480;DHT22;226;48.606;9.096;2024-02-26T13:40:46;14.20;1.00
480;DHT22;226;48.606;9.096;2024-02-26T13:43:14;14.30;1.00
480;DHT22;226;48.606;9.096;2024-02-26T13:45:43;14.30;1.00
480;DHT22;226;48.606;9.096;2024-02-26T13:48:15;14.30;1.00
480;DHT22;226;48.606;9.096;2024-02-26T13:50:44;14.50;1.00
480;DHT22;226;48.606;9.096;2024-02-26T13:53:13;14.60;1.00
480;DHT22;226;48.606;9.096;2024-02-26T13:55:42;14.70;1.00
480;DHT22;226;48.606;9.096;2024-02-26T13:58:12;14.80;1.00
480;DHT22;226;48.606;9.096;2024-02-26T14:00:42;15.00;1.00
480;DHT22;226;48.606;9.096;2024-02-26T14:03:10;15.20;1.00
480;DHT22;226;48.606;9.096;2024-02-26T14:05:40;15.30;1.00
480;DHT22;226;48.606;9.096;2024-02-26T14:08:14;16.00;1.00
480;DHT22;226;48.606;9.096;2024-02-26T14:10:42;15.40;1.00
480;DHT22;226;48.606;9.096;2024-02-26T14:13:11;15.30;1.00
480;DHT22;226;48.606;9.096;2024-02-26T14:15:39;15.30;1.00
480;DHT22;226;48.606;9.096;2024-02-26T14:18:08;15.40;1.00
480;DHT22;226;48.606;9.096;2024-02-26T14:20:36;15.90;1.00
480;DHT22;226;48.606;9.096;2024-02-26T14:23:06;16.50;1.00
480;DHT22;226;48.606;9.096;2024-02-26T14:25:35;16.90;1.00
480;DHT22;226;48.606;9.096;2024-02-26T14:28:04;17.20;1.00
480;DHT22;226;48.606;9.096;2024-02-26T14:30:32;17.60;1.00
480;DHT22;226;48.606;9.096;2024-02-26T14:33:00;17.80;1.00
480;DHT22;226;48.606;9.096;2024-02-26T14:35:29;17.60;1.00
480;DHT22;226;48.606;9.096;2024-02-26T14:37:57;17.40;1.00
480;DHT22;226;48.606;9.096;2024-02-26T14:40:29;17.20;1.00
480;DHT22;226;48.606;9.096;2024-02-26T14:42:57;17.00;1.00
480;DHT22;226;48.606;9.096;2024-02-26T14:45:29;17.00;1.00
480;DHT22;226;48.606;9.096;2024-02-26T14:47:57;17.10;1.00
480;DHT22;226;48.606;9.096;2024-02-26T14:50:25;17.10;1.00
480;DHT22;226;48.606;9.096;2024-02-26T14:52:54;16.90;1.00
480;DHT22;226;48.606;9.096;2024-02-26T14:55:22;16.60;1.00
480;DHT22;226;48.606;9.096;2024-02-26T14:57:51;16.40;1.00
480;DHT22;226;48.606;9.096;2024-02-26T15:00:20;16.10;1.00
480;DHT22;226;48.606;9.096;2024-02-26T15:02:48;15.80;1.00
480;DHT22;226;48.606;9.096;2024-02-26T15:05:16;15.60;1.00
480;DHT22;226;48.606;9.096;2024-02-26T15:07:46;15.40;1.00
480;DHT22;226;48.606;9.096;2024-02-26T15:10:14;15.20;1.00
480;DHT22;226;48.606;9.096;2024-02-26T15:12:43;15.20;1.00
480;DHT22;226;48.606;9.096;2024-02-26T15:15:12;15.10;1.00
480;DHT22;226;48.606;9.096;2024-02-26T15:17:41;15.00;1.00
480;DHT22;226;48.606;9.096;2024-02-26T15:20:10;14.80;1.00
480;DHT22;226;48.606;9.096;2024-02-26T15:22:38;14.60;1.00
480;DHT22;226;48.606;9.096;2024-02-26T15:25:07;14.40;1.00
480;DHT22;226;48.606;9.096;2024-02-26T15:27:38;14.20;1.00
480;DHT22;226;48.606;9.096;2024-02-26T15:30:08;14.20;1.00
480;DHT22;226;48.606;9.096;2024-02-26T15:32:38;14.10;1.00
480;DHT22;226;48.606;9.096;2024-02-26T15:35:06;14.00;1.00
480;DHT22;226;48.606;9.096;2024-02-26T15:37:35;13.80;1.00
480;DHT22;226;48.606;9.096;2024-02-26T15:40:04;13.70;1.00
480;DHT22;226;48.606;9.096;2024-02-26T15:42:34;13.60;1.00
480;DHT22;226;48.606;9.096;2024-02-26T15:45:03;13.50;1.00
480;DHT22;226;48.606;9.096;2024-02-26T15:47:31;13.40;1.00
480;DHT22;226;48.606;9.096;2024-02-26T15:50:00;13.40;1.00
480;DHT22;226;48.606;9.096;2024-02-26T15:52:30;13.30;1.00
480;DHT22;226;48.606;9.096;2024-02-26T15:54:58;13.20;1.00
480;DHT22;226;48.606;9.096;2024-02-26T15:57:27;13.20;1.00
480;DHT22;226;48.606;9.096;2024-02-26T15:59:55;13.10;1.00
480;DHT22;226;48.606;9.096;2024-02-26T16:02:27;13.00;1.00
480;DHT22;226;48.606;9.096;2024-02-26T16:04:56;13.00;1.00
480;DHT22;226;48.606;9.096;2024-02-26T16:07:32;13.00;1.00
480;DHT22;226;48.606;9.096;2024-02-26T16:10:02;13.00;1.00
480;DHT22;226;48.606;9.096;2024-02-26T16:12:36;12.90;1.00
480;DHT22;226;48.606;9.096;2024-02-26T16:15:06;12.80;1.00
480;DHT22;226;48.606;9.096;2024-02-26T16:17:38;12.70;1.00
480;DHT22;226;48.606;9.096;2024-02-26T16:20:14;12.60;1.00
480;DHT22;226;48.606;9.096;2024-02-26T16:22:46;12.50;1.00
480;DHT22;226;48.606;9.096;2024-02-26T16:25:16;12.40;1.00
480;DHT22;226;48.606;9.096;2024-02-26T16:27:45;12.40;1.00
480;DHT22;226;48.606;9.096;2024-02-26T16:30:13;12.40;1.00
480;DHT22;226;48.606;9.096;2024-02-26T16:32:42;12.30;1.00
480;DHT22;226;48.606;9.096;2024-02-26T16:35:11;12.30;1.00
480;DHT22;226;48.606;9.096;2024-02-26T16:37:39;12.40;1.00
480;DHT22;226;48.606;9.096;2024-02-26T16:40:09;12.20;1.00
480;DHT22;226;48.606;9.096;2024-02-26T16:42:42;12.20;1.00
480;DHT22;226;48.606;9.096;2024-02-26T16:45:11;12.20;1.00
480;DHT22;226;48.606;9.096;2024-02-26T16:47:40;12.20;1.00
480;DHT22;226;48.606;9.096;2024-02-26T16:50:09;12.20;1.20
480;DHT22;226;48.606;9.096;2024-02-26T16:52:38;12.20;1.40
480;DHT22;226;48.606;9.096;2024-02-26T16:55:07;12.10;2.80
480;DHT22;226;48.606;9.096;2024-02-26T16:57:37;12.10;2.50
480;DHT22;226;48.606;9.096;2024-02-26T17:00:08;12.10;2.30
480;DHT22;226;48.606;9.096;2024-02-26T17:02:39;12.10;2.90
480;DHT22;226;48.606;9.096;2024-02-26T17:05:08;12.10;2.90